Time;durP1;ratioP1;P1;durP2;ratioP2;P2;SDS_P1;SDS_P2;PMS_P1;PMS_P2;Temp;Humidity;BMP_temperature;BMP_pressure;BME280_temperature;BME280_humidity;BME280_pressure;Samples;Min_cycle;Max_cycle;Signal;HPM_P1;HPM_P2
2023/04/06 00:00:34;;;;;;;8.90;4.93;;;6.00;99.90;;;;;;5078895;28;20482;-62
2023/04/06 00:03:01;;;;;;;6.97;4.80;;;6.10;99.90;;;;;;5078433;28;20453;-62
2023/04/06 00:05:30;;;;;;;5.80;3.80;;;6.10;99.90;;;;;;5078395;28;20457;-62
2023/04/06 00:07:58;;;;;;;5.70;4.40;;;6.00;99.90;;;;;;5078372;28;20467;-61
2023/04/06 00:10:28;;;;;;;5.60;4.50;;;6.00;99.90;;;;;;5078679;28;20490;-60
2023/04/06 00:12:57;;;;;;;4.30;3.90;;;6.00;99.90;;;;;;5078581;28;20486;-60
2023/04/06 00:15:24;;;;;;;8.60;5.33;;;6.00;99.90;;;;;;5077759;28;20447;-58
2023/04/06 00:17:51;;;;;;;7.93;3.53;;;5.90;99.90;;;;;;5078397;28;20442;-55
2023/04/06 00:20:18;;;;;;;6.10;5.43;;;5.90;99.90;;;;;;5078247;28;20435;-60
2023/04/06 00:22:45;;;;;;;5.00;4.23;;;5.90;99.90;;;;;;5078469;28;20435;-61
2023/04/06 00:25:15;;;;;;;4.10;3.53;;;5.90;99.90;;;;;;5077657;28;20463;-59
2023/04/06 00:27:42;;;;;;;9.60;4.33;;;5.90;99.90;;;;;;5078472;28;20423;-58
2023/04/06 00:30:11;;;;;;;6.83;5.30;;;5.90;99.90;;;;;;5077963;28;20478;-58
2023/04/06 00:32:40;;;;;;;10.40;4.77;;;5.80;99.90;;;;;;5077537;28;20513;-61
2023/04/06 00:35:08;;;;;;;7.90;5.10;;;5.80;99.90;;;;;;5078269;28;20477;-59
2023/04/06 00:37:35;;;;;;;11.53;6.23;;;5.80;99.90;;;;;;5075526;28;20479;-59
2023/04/06 00:40:02;;;;;;;7.53;4.97;;;5.80;99.90;;;;;;5076826;28;20436;-58
2023/04/06 00:42:29;;;;;;;9.40;5.00;;;5.70;99.90;;;;;;5076629;28;20918;-54
2023/04/06 00:44:57;;;;;;;5.33;4.00;;;5.70;99.90;;;;;;5077753;28;20499;-60
2023/04/06 00:47:26;;;;;;;4.40;4.00;;;5.60;99.90;;;;;;5077700;28;20447;-58
2023/04/06 00:49:56;;;;;;;6.10;4.30;;;5.60;99.90;;;;;;5077133;28;21006;-61
2023/04/06 00:52:23;;;;;;;8.30;4.90;;;5.60;99.90;;;;;;5077282;28;20593;-59
2023/04/06 00:54:50;;;;;;;4.43;3.10;;;5.60;99.90;;;;;;5078200;28;20474;-60
2023/04/06 00:57:18;;;;;;;6.70;3.63;;;5.60;99.90;;;;;;5076931;28;20455;-61
2023/04/06 00:59:45;;;;;;;6.53;3.60;;;5.50;99.90;;;;;;5076849;28;20458;-61
2023/04/06 01:02:12;;;;;;;4.77;3.60;;;5.60;99.90;;;;;;5076695;28;20483;-60
2023/04/06 01:04:41;;;;;;;5.03;3.83;;;5.60;99.90;;;;;;5076863;28;20458;-62
2023/04/06 01:07:08;;;;;;;4.07;3.40;;;5.50;99.90;;;;;;5076558;28;20459;-57
2023/04/06 01:09:35;;;;;;;6.20;5.03;;;5.50;99.90;;;;;;5076792;28;20447;-60
2023/04/06 01:12:02;;;;;;;7.00;4.00;;;5.50;99.90;;;;;;5076261;28;20434;-57
2023/04/06 01:14:29;;;;;;;7.10;3.63;;;5.50;99.90;;;;;;5077183;28;20466;-61
2023/04/06 01:17:00;;;;;;;6.27;4.27;;;5.40;99.90;;;;;;5076396;28;20431;-56
2023/04/06 01:19:27;;;;;;;4.37;3.50;;;5.40;99.90;;;;;;5076726;28;20436;-59
2023/04/06 01:21:56;;;;;;;4.97;3.80;;;5.40;99.90;;;;;;5076031;28;20430;-61
2023/04/06 01:24:24;;;;;;;5.53;4.20;;;5.30;99.90;;;;;;5076228;28;20444;-60
2023/04/06 01:26:51;;;;;;;6.60;3.40;;;5.30;99.90;;;;;;5076622;28;20467;-61
2023/04/06 01:29:18;;;;;;;3.90;3.30;;;5.30;99.90;;;;;;5076335;28;20474;-59
2023/04/06 01:31:46;;;;;;;5.63;3.67;;;5.30;99.90;;;;;;5076161;28;20479;-61
2023/04/06 01:34:13;;;;;;;5.07;3.40;;;5.30;99.90;;;;;;5076901;28;20489;-57
2023/04/06 01:36:40;;;;;;;10.20;4.13;;;5.30;99.90;;;;;;5077067;28;20423;-59
2023/04/06 01:39:07;;;;;;;8.70;4.60;;;5.20;99.90;;;;;;5077044;28;20463;-59
2023/04/06 01:41:35;;;;;;;6.33;4.73;;;5.20;99.90;;;;;;5077268;28;20474;-59
2023/04/06 01:44:02;;;;;;;6.00;3.63;;;5.20;99.90;;;;;;5077111;28;20435;-55
2023/04/06 01:46:29;;;;;;;4.47;4.03;;;5.20;99.90;;;;;;5077946;28;20420;-59
2023/04/06 01:48:56;;;;;;;5.07;3.70;;;5.20;99.90;;;;;;5077156;28;20435;-58
2023/04/06 01:51:24;;;;;;;8.80;3.77;;;5.20;99.90;;;;;;5077364;28;20633;-56
2023/04/06 01:53:51;;;;;;;6.37;4.20;;;5.20;99.90;;;;;;5077365;28;20507;-58
2023/04/06 01:56:18;;;;;;;5.33;3.77;;;5.20;99.90;;;;;;5077115;28;20435;-61
2023/04/06 01:58:46;;;;;;;10.60;3.80;;;5.10;99.90;;;;;;5076952;28;20424;-55
2023/04/06 02:01:13;;;;;;;6.70;4.43;;;5.10;99.90;;;;;;5077639;28;20411;-54
2023/04/06 02:03:40;;;;;;;29.77;14.20;;;5.10;99.90;;;;;;5077206;28;20463;-58
2023/04/06 02:06:07;;;;;;;11.30;6.47;;;5.10;99.90;;;;;;5077159;28;20469;-55
2023/04/06 02:08:34;;;;;;;4.70;3.97;;;5.00;99.90;;;;;;5077199;28;20486;-62
2023/04/06 02:11:10;;;;;;;5.93;4.20;;;5.00;99.90;;;;;;5076883;28;20486;-56
2023/04/06 02:13:37;;;;;;;5.93;3.60;;;5.00;99.90;;;;;;5076733;28;20432;-57
2023/04/06 02:16:06;;;;;;;7.27;3.80;;;5.10;99.90;;;;;;5077151;28;20439;-57
2023/04/06 02:18:33;;;;;;;4.93;4.23;;;5.00;99.90;;;;;;5077607;28;20494;-57
2023/04/06 02:21:00;;;;;;;5.33;4.00;;;5.00;99.90;;;;;;5076288;28;20467;-61
2023/04/06 02:23:27;;;;;;;5.27;4.60;;;5.00;99.90;;;;;;5075517;28;20443;-61
2023/04/06 02:25:57;;;;;;;4.57;3.83;;;4.90;99.90;;;;;;5076047;28;20431;-61
2023/04/06 02:28:24;;;;;;;9.60;4.83;;;4.90;99.90;;;;;;5075374;28;20447;-61
2023/04/06 02:30:51;;;;;;;11.30;4.13;;;4.90;99.90;;;;;;5075541;28;20506;-56
2023/04/06 02:33:19;;;;;;;6.13;5.30;;;4.80;99.90;;;;;;5076011;28;20451;-58
2023/04/06 02:35:46;;;;;;;7.33;5.13;;;4.80;99.90;;;;;;5076917;28;20439;-58
2023/04/06 02:38:13;;;;;;;5.40;4.10;;;4.80;99.90;;;;;;5076619;28;20474;-57
2023/04/06 02:40:40;;;;;;;6.30;4.57;;;4.70;99.90;;;;;;5076537;28;20439;-59
2023/04/06 02:43:07;;;;;;;5.60;3.93;;;4.70;99.90;;;;;;5076749;28;20443;-58
2023/04/06 02:45:34;;;;;;;10.00;5.67;;;4.70;99.90;;;;;;5077282;28;20589;-61
2023/04/06 02:48:01;;;;;;;7.63;5.10;;;4.60;99.90;;;;;;5076984;28;20478;-60
2023/04/06 02:50:29;;;;;;;7.37;5.47;;;4.60;99.90;;;;;;5075040;28;20509;-59
2023/04/06 02:52:56;;;;;;;8.00;5.20;;;4.50;99.90;;;;;;5074851;28;20547;-59
2023/04/06 02:55:26;;;;;;;5.57;4.27;;;4.50;99.90;;;;;;5075168;28;20451;-59
2023/04/06 02:57:53;;;;;;;5.70;4.10;;;4.50;99.90;;;;;;5076930;28;20464;-58
2023/04/06 03:00:20;;;;;;;7.60;4.53;;;4.60;99.90;;;;;;5075953;28;20435;-62
2023/04/06 03:02:47;;;;;;;12.93;4.77;;;4.60;99.90;;;;;;5074639;28;20458;-61
2023/04/06 03:05:14;;;;;;;9.47;4.23;;;4.60;99.90;;;;;;5075512;28;20494;-61
2023/04/06 03:07:43;;;;;;;8.70;4.47;;;4.60;99.90;;;;;;5076162;28;20451;-60
2023/04/06 03:10:10;;;;;;;5.57;4.30;;;4.60;99.90;;;;;;5074377;28;20467;-62
2023/04/06 03:12:37;;;;;;;7.00;4.83;;;4.60;99.90;;;;;;5075409;28;20423;-61
2023/04/06 03:15:05;;;;;;;5.57;4.00;;;4.60;99.90;;;;;;5075133;28;20763;-61
2023/04/06 03:17:32;;;;;;;16.00;5.80;;;4.60;99.90;;;;;;5076432;28;20427;-61
2023/04/06 03:20:02;;;;;;;8.40;5.30;;;4.50;99.90;;;;;;5076538;28;20442;-60
2023/04/06 03:22:32;;;;;;;7.40;4.70;;;4.40;99.90;;;;;;5075366;28;20475;-57
2023/04/06 03:25:00;;;;;;;6.90;5.13;;;4.50;99.90;;;;;;5075516;28;20439;-60
2023/04/06 03:27:27;;;;;;;8.10;4.90;;;4.40;99.90;;;;;;5075427;28;20435;-61
2023/04/06 03:29:55;;;;;;;10.53;6.20;;;4.40;99.90;;;;;;5075014;28;20450;-58
2023/04/06 03:32:22;;;;;;;6.40;4.90;;;4.30;99.90;;;;;;5074612;28;20471;-60
2023/04/06 03:34:49;;;;;;;8.40;6.43;;;4.30;99.90;;;;;;5075393;28;20536;-60
2023/04/06 03:37:16;;;;;;;7.23;5.83;;;4.30;99.90;;;;;;5074601;28;20448;-62
2023/04/06 03:39:43;;;;;;;11.53;7.00;;;4.20;99.90;;;;;;5074187;28;20443;-61
2023/04/06 03:42:11;;;;;;;7.90;5.90;;;4.20;99.90;;;;;;5074024;28;20457;-60
2023/04/06 03:44:38;;;;;;;8.40;5.33;;;4.20;99.90;;;;;;5075678;28;20423;-61
2023/04/06 03:47:05;;;;;;;9.60;6.60;;;4.20;99.90;;;;;;5074921;28;20474;-61
2023/04/06 03:49:32;;;;;;;7.00;5.17;;;4.20;99.90;;;;;;5074007;28;20447;-60
2023/04/06 03:52:00;;;;;;;8.67;5.50;;;4.20;99.90;;;;;;5074146;28;20483;-61
2023/04/06 03:54:27;;;;;;;5.90;5.30;;;4.20;99.90;;;;;;5075605;28;20586;-61
2023/04/06 03:56:54;;;;;;;7.50;5.40;;;4.10;99.90;;;;;;5074280;28;20455;-62
2023/04/06 03:59:23;;;;;;;6.67;5.67;;;4.10;99.90;;;;;;5073658;28;20493;-59
2023/04/06 04:01:50;;;;;;;7.13;6.40;;;4.10;99.90;;;;;;5075095;28;20459;-60
2023/04/06 04:04:17;;;;;;;6.40;5.37;;;4.20;99.90;;;;;;5074348;28;20467;-60
2023/04/06 04:06:44;;;;;;;12.30;7.00;;;4.20;99.90;;;;;;5074503;28;20482;-60
2023/04/06 04:09:11;;;;;;;7.63;6.00;;;4.20;99.90;;;;;;5074726;28;20439;-60
2023/04/06 04:11:38;;;;;;;9.23;6.47;;;4.20;99.90;;;;;;5075346;28;20497;-58
2023/04/06 04:14:05;;;;;;;7.47;6.67;;;4.20;99.90;;;;;;5078097;28;20422;-61
2023/04/06 04:16:34;;;;;;;8.13;7.30;;;4.20;99.90;;;;;;5078427;28;20492;-58
2023/04/06 04:19:00;;;;;;;11.43;7.33;;;4.20;99.90;;;;;;5077935;28;20455;-59
2023/04/06 04:21:31;;;;;;;7.07;5.63;;;4.20;99.90;;;;;;5078178;28;20439;-59
2023/04/06 04:23:58;;;;;;;10.97;6.93;;;4.20;99.90;;;;;;5078273;28;20459;-62
2023/04/06 04:26:25;;;;;;;13.50;7.23;;;4.20;99.90;;;;;;5077556;28;20439;-61
2023/04/06 04:28:52;;;;;;;14.20;6.80;;;4.20;99.90;;;;;;5077908;28;20431;-60
2023/04/06 04:31:20;;;;;;;13.47;7.87;;;4.20;99.90;;;;;;5077388;28;20492;-61
2023/04/06 04:33:48;;;;;;;7.70;6.40;;;4.20;99.90;;;;;;5077359;28;20652;-61
2023/04/06 04:36:15;;;;;;;9.00;6.93;;;4.20;99.90;;;;;;5078071;28;20456;-61
2023/04/06 04:38:42;;;;;;;10.73;7.53;;;4.20;99.90;;;;;;5077835;28;20509;-60
2023/04/06 04:41:09;;;;;;;6.70;5.83;;;4.20;99.90;;;;;;5077987;28;20435;-59
2023/04/06 04:43:36;;;;;;;7.67;5.43;;;4.30;99.90;;;;;;5077294;28;20457;-61
2023/04/06 04:46:06;;;;;;;8.40;5.87;;;4.30;99.90;;;;;;5077521;28;20450;-60
2023/04/06 04:48:33;;;;;;;10.37;6.97;;;4.20;99.90;;;;;;5077184;28;20455;-60
2023/04/06 04:51:02;;;;;;;11.70;6.50;;;4.10;99.90;;;;;;5077308;28;20487;-60
2023/04/06 04:53:29;;;;;;;19.67;6.20;;;4.10;99.90;;;;;;5077227;28;20447;-58
2023/04/06 04:55:56;;;;;;;7.80;6.60;;;4.10;99.90;;;;;;5077160;28;20439;-61
2023/04/06 04:58:23;;;;;;;6.20;5.70;;;4.00;99.90;;;;;;5077143;28;20470;-61
2023/04/06 05:00:50;;;;;;;11.97;5.97;;;4.10;99.90;;;;;;5077424;28;20440;-62
2023/04/06 05:03:21;;;;;;;8.67;6.40;;;4.10;99.90;;;;;;5077115;28;20473;-61
2023/04/06 05:05:49;;;;;;;6.17;5.43;;;4.00;99.90;;;;;;5076836;28;20461;-63
2023/04/06 05:08:17;;;;;;;9.97;6.67;;;4.10;99.90;;;;;;5073976;28;20418;-60
2023/04/06 05:10:46;;;;;;;5.60;4.50;;;4.00;99.90;;;;;;5075753;28;20545;-62
2023/04/06 05:13:13;;;;;;;10.93;5.53;;;4.00;99.90;;;;;;5075953;28;20447;-57
2023/04/06 05:15:40;;;;;;;6.13;4.87;;;4.00;99.90;;;;;;5076796;28;20447;-61
2023/04/06 05:18:10;;;;;;;8.00;5.07;;;4.00;99.90;;;;;;5075928;28;20471;-60
2023/04/06 05:20:39;;;;;;;6.40;5.67;;;4.00;99.90;;;;;;5072867;28;20546;-60
2023/04/06 05:23:06;;;;;;;6.40;4.73;;;3.90;99.90;;;;;;5061432;28;20497;-60
2023/04/06 05:25:34;;;;;;;8.97;5.00;;;4.00;99.90;;;;;;5076193;28;20509;-61
2023/04/06 05:28:04;;;;;;;7.83;5.23;;;3.90;99.90;;;;;;5073637;28;20463;-62
2023/04/06 05:30:31;;;;;;;9.70;5.33;;;4.00;99.90;;;;;;5074824;28;20493;-62
2023/04/06 05:32:58;;;;;;;7.37;5.03;;;3.90;99.90;;;;;;5075734;28;20495;-61
2023/04/06 05:35:25;;;;;;;8.10;5.10;;;4.00;99.90;;;;;;5074761;28;20463;-61
2023/04/06 05:37:52;;;;;;;5.70;4.50;;;4.00;99.90;;;;;;5056438;28;20478;-61
2023/04/06 05:40:19;;;;;;;9.57;4.97;;;4.00;99.90;;;;;;5069092;28;20452;-60
2023/04/06 05:42:49;;;;;;;8.90;4.50;;;4.00;99.90;;;;;;5071020;28;20444;-61
2023/04/06 05:45:18;;;;;;;9.77;5.93;;;4.10;99.90;;;;;;5074230;28;20458;-62
2023/04/06 05:47:45;;;;;;;12.73;6.60;;;4.10;99.90;;;;;;5074946;28;20457;-61
2023/04/06 05:50:13;;;;;;;6.50;4.30;;;4.20;99.90;;;;;;5074747;28;20439;-63
2023/04/06 05:52:42;;;;;;;18.63;6.20;;;4.20;99.90;;;;;;5072215;28;20518;-60
2023/04/06 05:55:10;;;;;;;5.77;4.60;;;4.30;99.90;;;;;;5072650;28;20538;-61
2023/04/06 05:57:37;;;;;;;7.57;5.43;;;4.40;99.90;;;;;;5075721;28;20507;-62
2023/04/06 06:00:08;;;;;;;10.53;5.63;;;4.40;99.90;;;;;;5076039;28;20748;-63
2023/04/06 06:02:35;;;;;;;9.10;5.50;;;4.50;99.90;;;;;;5076621;28;20427;-59
2023/04/06 06:05:02;;;;;;;6.53;5.37;;;4.50;99.90;;;;;;5075142;28;20468;-62
2023/04/06 06:07:29;;;;;;;7.37;6.20;;;5.50;99.90;;;;;;5074685;28;20506;-61
2023/04/06 06:09:57;;;;;;;8.47;5.07;;;5.50;99.90;;;;;;5075163;28;20444;-62
2023/04/06 06:12:25;;;;;;;10.50;5.50;;;5.40;99.90;;;;;;5075008;28;20538;-59
2023/04/06 06:14:52;;;;;;;8.30;5.57;;;5.40;99.90;;;;;;5075535;28;20493;-59
2023/04/06 06:17:22;;;;;;;9.77;5.57;;;5.30;99.90;;;;;;5075678;28;20451;-57
2023/04/06 06:19:49;;;;;;;13.53;6.70;;;5.30;99.90;;;;;;5075206;28;20591;-62
2023/04/06 06:22:16;;;;;;;5.50;4.93;;;5.20;99.90;;;;;;5075368;28;20435;-60
2023/04/06 06:24:43;;;;;;;8.70;4.97;;;5.20;99.90;;;;;;5074712;28;20467;-58
2023/04/06 06:27:10;;;;;;;11.33;4.93;;;5.20;99.90;;;;;;5074927;28;20435;-58
2023/04/06 06:29:37;;;;;;;7.63;5.70;;;5.30;99.90;;;;;;5074716;28;20428;-60
2023/04/06 06:32:04;;;;;;;7.10;5.27;;;5.30;99.90;;;;;;5074493;28;20498;-61
2023/04/06 06:34:32;;;;;;;10.07;5.70;;;5.30;99.90;;;;;;5074762;28;20447;-61
2023/04/06 06:36:59;;;;;;;10.13;6.57;;;5.30;99.90;;;;;;5074567;28;20505;-61
2023/04/06 06:39:26;;;;;;;9.70;5.73;;;5.40;99.90;;;;;;5074622;28;20450;-60
2023/04/06 06:41:54;;;;;;;7.30;5.40;;;5.40;99.90;;;;;;5074844;28;20453;-59
2023/04/06 06:44:21;;;;;;;10.23;5.77;;;5.40;99.90;;;;;;5074173;28;20455;-59
2023/04/06 06:46:48;;;;;;;9.30;5.50;;;5.50;99.90;;;;;;5074165;28;20463;-61
2023/04/06 06:49:15;;;;;;;6.93;5.20;;;5.60;99.90;;;;;;5073789;28;20501;-59
2023/04/06 06:51:43;;;;;;;12.63;4.90;;;5.60;99.90;;;;;;5074707;28;20475;-60
2023/04/06 06:54:10;;;;;;;12.00;5.63;;;5.70;99.90;;;;;;5074648;28;20482;-61
2023/04/06 06:56:37;;;;;;;6.63;4.87;;;5.70;99.90;;;;;;5074685;28;20471;-60
2023/04/06 06:59:05;;;;;;;6.97;4.73;;;5.80;99.90;;;;;;5074403;28;20443;-59
2023/04/06 07:01:34;;;;;;;6.07;5.23;;;5.80;99.90;;;;;;5074260;28;20539;-61
2023/04/06 07:04:01;;;;;;;8.80;4.10;;;5.90;99.90;;;;;;5074502;28;20423;-57
2023/04/06 07:06:28;;;;;;;8.57;5.73;;;6.00;99.90;;;;;;5074402;28;20850;-60
2023/04/06 07:08:56;;;;;;;7.73;5.00;;;6.00;99.90;;;;;;5073934;28;20463;-57
2023/04/06 07:11:23;;;;;;;11.27;6.33;;;6.10;99.90;;;;;;5074168;28;20451;-61
2023/04/06 07:13:50;;;;;;;8.93;6.30;;;6.20;99.90;;;;;;5073994;28;20474;-61
2023/04/06 07:16:17;;;;;;;8.80;6.00;;;6.30;99.90;;;;;;5073472;28;20435;-61
2023/04/06 07:18:44;;;;;;;6.70;5.40;;;6.40;99.90;;;;;;5073546;28;20640;-60
2023/04/06 07:21:11;;;;;;;6.87;4.97;;;6.50;99.90;;;;;;5073707;28;20493;-60
2023/04/06 07:23:38;;;;;;;11.90;4.97;;;6.60;99.90;;;;;;5074194;28;20469;-60
2023/04/06 07:26:06;;;;;;;7.10;5.27;;;6.70;99.90;;;;;;5073448;28;20459;-61
2023/04/06 07:28:33;;;;;;;5.23;4.67;;;6.80;99.90;;;;;;5073811;28;20420;-61
2023/04/06 07:31:00;;;;;;;6.67;4.87;;;6.80;99.90;;;;;;5073800;28;20453;-60
2023/04/06 07:33:29;;;;;;;21.13;10.70;;;6.90;99.90;;;;;;5073474;28;20475;-61
2023/04/06 07:35:58;;;;;;;12.80;6.70;;;7.00;99.90;;;;;;5074026;28;20483;-62
2023/04/06 07:38:25;;;;;;;9.37;5.10;;;7.10;99.90;;;;;;5074148;28;20463;-62
2023/04/06 07:40:52;;;;;;;6.10;4.33;;;7.20;99.90;;;;;;5073211;28;20479;-59
2023/04/06 07:43:20;;;;;;;5.97;4.20;;;7.20;99.90;;;;;;5073143;28;20439;-61
2023/04/06 07:45:49;;;;;;;7.40;4.50;;;7.30;99.90;;;;;;5073237;28;20443;-61
2023/04/06 07:48:16;;;;;;;10.63;3.60;;;7.40;99.90;;;;;;5077572;28;20478;-61
2023/04/06 07:50:43;;;;;;;9.90;3.63;;;7.50;99.90;;;;;;5077966;28;20457;-60
2023/04/06 07:53:10;;;;;;;8.17;3.97;;;7.50;99.90;;;;;;5077538;28;20478;-61
2023/04/06 07:55:37;;;;;;;6.73;3.23;;;7.70;99.90;;;;;;5077442;28;20474;-61
2023/04/06 07:58:04;;;;;;;5.03;2.90;;;7.80;99.90;;;;;;5076824;28;20439;-62
2023/04/06 08:00:32;;;;;;;3.50;3.17;;;7.90;99.90;;;;;;5077399;28;20473;-62
2023/04/06 08:02:59;;;;;;;6.17;3.43;;;8.00;99.90;;;;;;5077384;28;20467;-59
2023/04/06 08:05:26;;;;;;;8.63;4.50;;;8.10;99.90;;;;;;5077464;28;20424;-61
2023/04/06 08:07:53;;;;;;;5.73;3.83;;;8.30;99.90;;;;;;5078067;28;20436;-61
2023/04/06 08:10:20;;;;;;;4.57;3.97;;;8.40;99.90;;;;;;5076759;28;20446;-61
2023/04/06 08:12:47;;;;;;;9.23;4.03;;;8.70;99.90;;;;;;5077179;28;20501;-58
2023/04/06 08:15:14;;;;;;;14.60;4.20;;;10.10;99.90;;;;;;5076405;28;20474;-60
2023/04/06 08:17:43;;;;;;;9.60;3.60;;;12.30;99.40;;;;;;5077455;28;20438;-62
2023/04/06 08:20:11;;;;;;;7.77;3.93;;;14.70;89.90;;;;;;5075441;28;20447;-59
2023/04/06 08:22:38;;;;;;;9.20;3.60;;;16.50;69.80;;;;;;5078135;28;20462;-60
2023/04/06 08:25:05;;;;;;;5.23;3.47;;;18.20;59.20;;;;;;5077670;28;20469;-61
2023/04/06 08:27:32;;;;;;;4.87;4.23;;;19.30;53.30;;;;;;5071233;28;20455;-60
2023/04/06 08:29:59;;;;;;;6.20;3.80;;;20.10;49.60;;;;;;5076907;28;20459;-62
2023/04/06 08:32:26;;;;;;;8.47;3.07;;;20.80;45.80;;;;;;5075059;28;20483;-62
2023/04/06 08:34:56;;;;;;;5.90;3.77;;;21.40;44.20;;;;;;5075826;28;20451;-61
2023/04/06 08:37:23;;;;;;;8.83;3.47;;;22.30;43.40;;;;;;5077186;28;20451;-61
2023/04/06 08:39:50;;;;;;;5.53;3.43;;;23.30;40.70;;;;;;5072382;28;20471;-62
2023/04/06 08:42:21;;;;;;;4.33;2.63;;;23.70;39.00;;;;;;5074209;28;20443;-63
2023/04/06 08:44:50;;;;;;;4.93;3.30;;;23.90;37.00;;;;;;5076503;28;20439;-62
2023/04/06 08:47:18;;;;;;;5.80;3.27;;;24.00;36.30;;;;;;5077124;28;20469;-61
2023/04/06 08:49:46;;;;;;;4.00;3.50;;;24.60;35.60;;;;;;5076608;28;20439;-59
2023/04/06 08:52:18;;;;;;;3.83;2.77;;;24.50;34.60;;;;;;5076742;28;20483;-62
2023/04/06 08:54:45;;;;;;;4.57;3.10;;;24.50;34.80;;;;;;5076290;28;20424;-62
2023/04/06 08:57:13;;;;;;;3.50;2.50;;;24.30;34.10;;;;;;5076063;28;20435;-61
2023/04/06 08:59:41;;;;;;;7.60;2.83;;;23.90;34.40;;;;;;5071259;28;20423;-62
2023/04/06 09:02:15;;;;;;;3.60;2.83;;;23.80;33.10;;;;;;5077011;28;20439;-61
2023/04/06 09:04:42;;;;;;;4.20;2.60;;;23.30;32.90;;;;;;5072142;28;20473;-61
2023/04/06 09:07:09;;;;;;;2.60;2.33;;;23.10;33.70;;;;;;5076047;28;20447;-61
2023/04/06 09:09:43;;;;;;;3.60;2.50;;;23.10;33.10;;;;;;5076074;28;20427;-60
2023/04/06 09:12:12;;;;;;;5.23;2.50;;;22.90;33.70;;;;;;5075673;28;20935;-60
2023/04/06 09:14:40;;;;;;;3.17;2.63;;;23.00;33.10;;;;;;5075854;28;20448;-61
2023/04/06 09:17:07;;;;;;;3.53;2.53;;;22.80;33.10;;;;;;5075474;28;20463;-59
2023/04/06 09:19:34;;;;;;;3.23;2.93;;;22.60;33.70;;;;;;5076042;28;20489;-61
2023/04/06 09:22:06;;;;;;;9.03;3.20;;;22.60;33.90;;;;;;5075795;28;20479;-61
2023/04/06 09:24:46;;;;;;;4.53;2.90;;;22.60;33.90;;;;;;5076720;28;20419;-62
2023/04/06 09:27:13;;;;;;;3.27;2.47;;;22.80;33.80;;;;;;5075412;28;20767;-62
2023/04/06 09:29:41;;;;;;;4.00;2.30;;;22.80;33.90;;;;;;5075485;28;20447;-62
2023/04/06 09:32:10;;;;;;;3.53;2.30;;;23.00;34.20;;;;;;5075752;28;20462;-60
2023/04/06 09:34:38;;;;;;;3.20;2.30;;;23.00;33.00;;;;;;5075077;28;20451;-61
2023/04/06 09:37:14;;;;;;;3.00;2.70;;;23.40;32.20;;;;;;5076339;28;20474;-61
2023/04/06 09:39:41;;;;;;;4.10;2.67;;;23.50;32.60;;;;;;5075439;28;20519;-61
2023/04/06 09:42:09;;;;;;;6.70;2.30;;;23.70;32.20;;;;;;5075300;28;20439;-62
2023/04/06 09:44:36;;;;;;;3.03;2.40;;;23.60;32.70;;;;;;5075190;28;20447;-62
2023/04/06 09:47:08;;;;;;;3.53;2.53;;;23.50;32.10;;;;;;5075146;28;20478;-59
2023/04/06 09:49:36;;;;;;;3.40;2.90;;;23.50;31.60;;;;;;5076385;28;20412;-62
2023/04/06 09:52:07;;;;;;;6.23;2.37;;;23.30;31.50;;;;;;5075552;28;20447;-61
2023/04/06 09:54:37;;;;;;;4.03;3.20;;;23.40;31.50;;;;;;5070642;28;20495;-59
2023/04/06 09:57:12;;;;;;;5.90;2.60;;;23.00;31.60;;;;;;5070711;28;20439;-63
2023/04/06 09:59:46;;;;;;;7.73;4.03;;;22.80;31.40;;;;;;5057062;28;20482;-63
2023/04/06 10:02:18;;;;;;;2.67;2.23;;;22.80;30.30;;;;;;5056451;28;20864;-61
2023/04/06 10:04:55;;;;;;;3.10;2.00;;;23.20;30.00;;;;;;5056156;28;20478;-63
2023/04/06 10:07:23;;;;;;;3.40;1.70;;;23.30;29.90;;;;;;5054945;28;20481;-62
2023/04/06 10:09:51;;;;;;;2.77;1.80;;;23.00;30.10;;;;;;5054588;28;20455;-62
2023/04/06 10:12:20;;;;;;;3.30;2.33;;;22.50;30.00;;;;;;5054833;28;20474;-62
2023/04/06 10:14:47;;;;;;;2.80;1.80;;;22.70;30.00;;;;;;5054689;28;20454;-64
2023/04/06 10:17:14;;;;;;;2.83;2.07;;;22.60;30.80;;;;;;5054900;28;20518;-59
2023/04/06 10:19:50;;;;;;;1.60;1.50;;;22.30;31.40;;;;;;5054852;28;20486;-63
2023/04/06 10:22:25;;;;;;;2.53;2.00;;;22.60;30.00;;;;;;5054574;28;20451;-63
2023/04/06 10:24:52;;;;;;;1.70;1.40;;;21.80;30.50;;;;;;5054501;28;20446;-64
2023/04/06 10:27:28;;;;;;;3.73;1.57;;;20.70;29.70;;;;;;5054592;28;20459;-62
2023/04/06 10:30:01;;;;;;;2.30;2.00;;;20.60;29.90;;;;;;5054456;28;20470;-62
2023/04/06 10:32:33;;;;;;;2.70;1.77;;;20.50;29.50;;;;;;5054975;28;20501;-63
2023/04/06 10:35:09;;;;;;;2.03;1.70;;;20.00;30.00;;;;;;5054729;28;20459;-62
2023/04/06 10:37:51;;;;;;;3.57;1.90;;;20.40;29.70;;;;;;5054451;28;20442;-66
2023/04/06 10:40:25;;;;;;;8.30;2.30;;;20.70;29.50;;;;;;5056580;28;20496;-59
2023/04/06 10:42:54;;;;;;;2.87;1.87;;;20.90;29.90;;;;;;5055152;28;20562;-63
2023/04/06 10:45:23;;;;;;;1.80;1.67;;;20.60;29.70;;;;;;5054631;28;20728;-62
2023/04/06 10:47:51;;;;;;;2.60;1.90;;;20.30;30.10;;;;;;5054556;28;20471;-61
2023/04/06 10:50:18;;;;;;;3.20;2.50;;;20.20;30.20;;;;;;5054399;28;20447;-62
2023/04/06 10:52:46;;;;;;;3.67;2.03;;;20.10;29.60;;;;;;5054198;28;20479;-61
2023/04/06 10:55:15;;;;;;;2.23;2.03;;;19.80;29.70;;;;;;5054370;28;20454;-63
2023/04/06 10:57:42;;;;;;;2.70;1.90;;;19.60;29.80;;;;;;5054003;28;20543;-61
2023/04/06 11:00:13;;;;;;;2.50;2.13;;;19.30;31.30;;;;;;5053882;28;20529;-62
2023/04/06 11:02:40;;;;;;;2.67;2.40;;;19.00;33.30;;;;;;5054302;28;20447;-62
2023/04/06 11:05:08;;;;;;;3.83;2.50;;;18.80;33.60;;;;;;5054330;28;20451;-59
2023/04/06 11:07:35;;;;;;;2.50;1.93;;;18.50;33.90;;;;;;5054083;28;20461;-62
2023/04/06 11:10:02;;;;;;;5.00;2.73;;;18.40;33.70;;;;;;5054173;28;20452;-61
2023/04/06 11:12:30;;;;;;;4.03;2.27;;;18.20;33.50;;;;;;5054232;28;20807;-64
2023/04/06 11:15:03;;;;;;;2.30;2.00;;;18.10;32.30;;;;;;5054265;28;20978;-62
2023/04/06 11:17:33;;;;;;;3.60;2.13;;;17.90;30.60;;;;;;5054481;28;20902;-59
2023/04/06 11:20:00;;;;;;;2.13;1.93;;;17.60;31.40;;;;;;5054394;28;20501;-62
2023/04/06 11:22:28;;;;;;;3.33;2.67;;;17.40;32.20;;;;;;5053870;28;20447;-62
2023/04/06 11:25:05;;;;;;;2.03;1.70;;;17.10;32.00;;;;;;5054439;28;20482;-61
2023/04/06 11:27:32;;;;;;;3.17;2.00;;;17.00;33.20;;;;;;5054543;28;20439;-61
2023/04/06 11:30:00;;;;;;;2.73;2.00;;;16.70;34.80;;;;;;5054124;28;20443;-63
2023/04/06 11:32:27;;;;;;;2.77;2.00;;;16.50;34.80;;;;;;5054254;28;20435;-61
2023/04/06 11:34:55;;;;;;;3.77;2.27;;;16.30;35.40;;;;;;5054642;28;20462;-61
2023/04/06 11:37:26;;;;;;;3.57;2.50;;;16.10;36.80;;;;;;5054543;28;20486;-62
2023/04/06 11:39:56;;;;;;;4.97;2.30;;;15.90;36.90;;;;;;5054399;28;20938;-61
2023/04/06 11:42:25;;;;;;;2.97;2.07;;;15.90;36.80;;;;;;5054519;28;20481;-63
2023/04/06 11:44:53;;;;;;;2.63;1.90;;;15.90;36.50;;;;;;5054333;28;20439;-62
2023/04/06 11:47:22;;;;;;;3.57;2.50;;;16.00;36.90;;;;;;5054531;28;20538;-62
2023/04/06 11:49:50;;;;;;;3.03;2.73;;;15.90;36.70;;;;;;5054372;28;20454;-64
2023/04/06 11:52:19;;;;;;;3.00;2.13;;;15.90;37.10;;;;;;5054329;28;20447;-62
2023/04/06 11:54:47;;;;;;;2.43;1.93;;;15.70;34.70;;;;;;5054246;28;20490;-61
2023/04/06 11:57:17;;;;;;;1.60;1.50;;;15.40;34.60;;;;;;5054262;28;20453;-63
2023/04/06 11:59:44;;;;;;;3.10;2.20;;;15.00;35.00;;;;;;5054786;28;20455;-61
2023/04/06 12:02:11;;;;;;;4.07;2.40;;;14.70;35.30;;;;;;5054207;28;20520;-62
2023/04/06 12:04:39;;;;;;;2.60;2.00;;;14.50;36.20;;;;;;5054641;28;20895;-61
2023/04/06 12:07:06;;;;;;;4.50;2.23;;;14.40;36.50;;;;;;5054318;28;20471;-60
2023/04/06 12:09:36;;;;;;;8.13;2.33;;;14.40;37.60;;;;;;5054190;28;20446;-61
2023/04/06 12:12:03;;;;;;;4.33;2.33;;;14.50;38.20;;;;;;5054494;28;20456;-61
2023/04/06 12:14:31;;;;;;;2.30;2.00;;;14.60;37.50;;;;;;5054078;28;20487;-63
2023/04/06 12:16:58;;;;;;;2.10;1.90;;;14.70;37.40;;;;;;5054577;28;20804;-63
2023/04/06 12:19:25;;;;;;;2.97;2.10;;;14.70;37.40;;;;;;5054450;28;20510;-62
2023/04/06 12:21:53;;;;;;;2.57;2.00;;;14.90;37.70;;;;;;5054233;28;20462;-63
2023/04/06 12:24:20;;;;;;;3.40;2.17;;;14.70;37.80;;;;;;5054466;28;20474;-62
2023/04/06 12:26:49;;;;;;;5.10;1.90;;;14.90;38.30;;;;;;5054483;28;20451;-63
2023/04/06 12:29:16;;;;;;;3.40;2.03;;;14.80;37.70;;;;;;5054678;28;20435;-62
2023/04/06 12:31:44;;;;;;;5.80;2.57;;;14.60;36.90;;;;;;5054719;28;20471;-62
2023/04/06 12:34:11;;;;;;;3.27;2.33;;;14.60;36.90;;;;;;5057512;28;20526;-61
2023/04/06 12:36:39;;;;;;;3.73;2.40;;;14.60;37.10;;;;;;5058418;28;20481;-59
2023/04/06 12:39:06;;;;;;;2.50;2.23;;;14.70;38.00;;;;;;5058490;28;20451;-61
2023/04/06 12:41:34;;;;;;;8.40;2.53;;;14.60;36.90;;;;;;5057947;28;20451;-61
2023/04/06 12:44:02;;;;;;;2.57;2.23;;;14.50;36.90;;;;;;5057839;28;20462;-62
2023/04/06 12:46:30;;;;;;;2.73;2.33;;;14.50;37.20;;;;;;5058178;28;20535;-62
2023/04/06 12:48:58;;;;;;;3.30;2.10;;;14.30;37.30;;;;;;5058291;28;20534;-63
2023/04/06 12:51:28;;;;;;;3.43;2.50;;;14.30;38.00;;;;;;5057958;28;20543;-64
2023/04/06 12:53:55;;;;;;;6.40;2.93;;;14.20;38.50;;;;;;5057525;28;20540;-63
2023/04/06 12:56:22;;;;;;;3.10;2.37;;;14.10;38.30;;;;;;5057480;28;20956;-62